sensor_id;sensor_type;location;lat;lon;timestamp;temperature;humidity
55213;DHT22;41083;52.932;6.674;2023-03-21T00:01:58;9.30;99.90
55213;DHT22;41083;52.932;6.674;2023-03-21T00:04:24;9.30;99.90
55213;DHT22;41083;52.932;6.674;2023-03-21T00:06:51;9.30;99.90
55213;DHT22;41083;52.932;6.674;2023-03-21T00:09:17;9.40;99.90
55213;DHT22;41083;52.932;6.674;2023-03-21T00:11:43;9.40;99.90
55213;DHT22;41083;52.932;6.674;2023-03-21T00:14:08;9.40;99.90
55213;DHT22;41083;52.932;6.674;2023-03-21T00:16:39;9.40;99.90
55213;DHT22;41083;52.932;6.674;2023-03-21T00:19:05;9.40;99.90
55213;DHT22;41083;52.932;6.674;2023-03-21T00:21:32;9.40;99.90
55213;DHT22;41083;52.932;6.674;2023-03-21T00:23:59;9.40;99.90
55213;DHT22;41083;52.932;6.674;2023-03-21T00:26:25;9.40;99.90
55213;DHT22;41083;52.932;6.674;2023-03-21T00:28:51;9.40;99.90
55213;DHT22;41083;52.932;6.674;2023-03-21T00:31:17;9.50;99.90
55213;DHT22;41083;52.932;6.674;2023-03-21T00:33:43;9.40;99.90
55213;DHT22;41083;52.932;6.674;2023-03-21T00:36:09;9.40;99.90
55213;DHT22;41083;52.932;6.674;2023-03-21T00:38:36;9.40;99.90
55213;DHT22;41083;52.932;6.674;2023-03-21T00:41:07;9.50;99.90
55213;DHT22;41083;52.932;6.674;2023-03-21T00:43:33;9.40;99.90
55213;DHT22;41083;52.932;6.674;2023-03-21T00:46:08;9.40;99.90
55213;DHT22;41083;52.932;6.674;2023-03-21T00:48:33;9.40;99.90
55213;DHT22;41083;52.932;6.674;2023-03-21T00:50:59;9.40;99.90
55213;DHT22;41083;52.932;6.674;2023-03-21T00:53:26;9.40;99.90
55213;DHT22;41083;52.932;6.674;2023-03-21T00:55:51;9.40;99.90
55213;DHT22;41083;52.932;6.674;2023-03-21T00:58:17;9.40;99.90
55213;DHT22;41083;52.932;6.674;2023-03-21T01:00:43;9.50;99.90
55213;DHT22;41083;52.932;6.674;2023-03-21T01:03:12;9.40;99.90
55213;DHT22;41083;52.932;6.674;2023-03-21T01:05:42;9.40;99.90
55213;DHT22;41083;52.932;6.674;2023-03-21T01:08:27;9.40;99.90
55213;DHT22;41083;52.932;6.674;2023-03-21T01:10:53;9.40;99.90
55213;DHT22;41083;52.932;6.674;2023-03-21T01:13:21;9.40;99.90
55213;DHT22;41083;52.932;6.674;2023-03-21T01:15:53;9.40;99.90
55213;DHT22;41083;52.932;6.674;2023-03-21T01:18:22;9.40;99.90
55213;DHT22;41083;52.932;6.674;2023-03-21T01:20:49;9.40;99.90
55213;DHT22;41083;52.932;6.674;2023-03-21T01:23:15;9.50;99.90
55213;DHT22;41083;52.932;6.674;2023-03-21T01:25:42;9.40;99.90
55213;DHT22;41083;52.932;6.674;2023-03-21T01:28:08;9.40;99.90
55213;DHT22;41083;52.932;6.674;2023-03-21T01:30:35;9.50;99.90
55213;DHT22;41083;52.932;6.674;2023-03-21T01:33:01;9.40;99.90
55213;DHT22;41083;52.932;6.674;2023-03-21T01:35:26;9.50;99.90
55213;DHT22;41083;52.932;6.674;2023-03-21T01:37:52;9.50;99.90
55213;DHT22;41083;52.932;6.674;2023-03-21T01:40:24;9.50;99.90
55213;DHT22;41083;52.932;6.674;2023-03-21T01:42:50;9.50;99.90
55213;DHT22;41083;52.932;6.674;2023-03-21T01:48:20;9.50;99.90
55213;DHT22;41083;52.932;6.674;2023-03-21T01:50:46;9.50;99.90
55213;DHT22;41083;52.932;6.674;2023-03-21T01:53:13;9.50;99.90
55213;DHT22;41083;52.932;6.674;2023-03-21T01:55:39;9.50;99.90
55213;DHT22;41083;52.932;6.674;2023-03-21T01:58:07;9.50;99.90
55213;DHT22;41083;52.932;6.674;2023-03-21T02:00:34;9.50;99.90
55213;DHT22;41083;52.932;6.674;2023-03-21T02:03:04;9.50;99.90
55213;DHT22;41083;52.932;6.674;2023-03-21T02:08:11;9.50;99.90
55213;DHT22;41083;52.932;6.674;2023-03-21T02:10:40;9.50;99.90
55213;DHT22;41083;52.932;6.674;2023-03-21T02:13:06;9.50;99.90
55213;DHT22;41083;52.932;6.674;2023-03-21T02:15:42;9.50;99.90
55213;DHT22;41083;52.932;6.674;2023-03-21T02:18:12;9.50;99.90
55213;DHT22;41083;52.932;6.674;2023-03-21T02:24:02;9.50;99.90
55213;DHT22;41083;52.932;6.674;2023-03-21T02:29:34;9.50;99.90
55213;DHT22;41083;52.932;6.674;2023-03-21T02:37:32;9.50;99.90
55213;DHT22;41083;52.932;6.674;2023-03-21T02:40:21;9.50;99.90
55213;DHT22;41083;52.932;6.674;2023-03-21T02:45:29;9.50;99.90
55213;DHT22;41083;52.932;6.674;2023-03-21T02:48:07;9.50;99.90
55213;DHT22;41083;52.932;6.674;2023-03-21T02:50:46;9.50;99.90
55213;DHT22;41083;52.932;6.674;2023-03-21T02:53:15;9.50;99.90
55213;DHT22;41083;52.932;6.674;2023-03-21T02:55:43;9.50;99.90
55213;DHT22;41083;52.932;6.674;2023-03-21T02:58:12;9.50;99.90
55213;DHT22;41083;52.932;6.674;2023-03-21T03:00:40;9.50;99.90
55213;DHT22;41083;52.932;6.674;2023-03-21T03:03:07;9.50;99.90
55213;DHT22;41083;52.932;6.674;2023-03-21T03:05:36;9.50;99.90
55213;DHT22;41083;52.932;6.674;2023-03-21T03:14:02;9.50;99.90
55213;DHT22;41083;52.932;6.674;2023-03-21T03:19:13;9.50;99.90
55213;DHT22;41083;52.932;6.674;2023-03-21T03:21:41;9.50;99.90
55213;DHT22;41083;52.932;6.674;2023-03-21T03:24:24;9.50;99.90
55213;DHT22;41083;52.932;6.674;2023-03-21T03:27:05;9.50;99.90
55213;DHT22;41083;52.932;6.674;2023-03-21T03:29:35;9.50;99.90
55213;DHT22;41083;52.932;6.674;2023-03-21T03:32:18;9.50;99.90
55213;DHT22;41083;52.932;6.674;2023-03-21T03:34:48;9.50;99.90
55213;DHT22;41083;52.932;6.674;2023-03-21T03:37:18;9.50;99.90
55213;DHT22;41083;52.932;6.674;2023-03-21T03:40:13;9.50;99.90
55213;DHT22;41083;52.932;6.674;2023-03-21T03:42:53;9.50;99.90
55213;DHT22;41083;52.932;6.674;2023-03-21T03:45:29;9.50;99.90
55213;DHT22;41083;52.932;6.674;2023-03-21T03:50:37;9.50;99.90
55213;DHT22;41083;52.932;6.674;2023-03-21T03:53:18;9.50;99.90
55213;DHT22;41083;52.932;6.674;2023-03-21T03:55:46;9.50;99.90
55213;DHT22;41083;52.932;6.674;2023-03-21T03:58:17;9.50;99.90
55213;DHT22;41083;52.932;6.674;2023-03-21T04:00:44;9.50;99.90
55213;DHT22;41083;52.932;6.674;2023-03-21T04:03:09;9.50;99.90
55213;DHT22;41083;52.932;6.674;2023-03-21T04:05:35;9.50;99.90
55213;DHT22;41083;52.932;6.674;2023-03-21T04:08:01;9.50;99.90
55213;DHT22;41083;52.932;6.674;2023-03-21T04:10:27;9.50;99.90
55213;DHT22;41083;52.932;6.674;2023-03-21T04:12:52;9.50;99.90
55213;DHT22;41083;52.932;6.674;2023-03-21T04:15:18;9.50;99.90
55213;DHT22;41083;52.932;6.674;2023-03-21T04:17:47;9.50;99.90
55213;DHT22;41083;52.932;6.674;2023-03-21T04:20:13;9.50;99.90
55213;DHT22;41083;52.932;6.674;2023-03-21T04:22:39;9.50;99.90
55213;DHT22;41083;52.932;6.674;2023-03-21T04:25:05;9.50;99.90
55213;DHT22;41083;52.932;6.674;2023-03-21T04:27:31;9.50;99.90
55213;DHT22;41083;52.932;6.674;2023-03-21T04:29:58;9.50;99.90
55213;DHT22;41083;52.932;6.674;2023-03-21T04:32:24;9.50;99.90
55213;DHT22;41083;52.932;6.674;2023-03-21T04:34:50;9.50;99.90
55213;DHT22;41083;52.932;6.674;2023-03-21T04:37:20;9.50;99.90
55213;DHT22;41083;52.932;6.674;2023-03-21T04:39:48;9.50;99.90
55213;DHT22;41083;52.932;6.674;2023-03-21T04:42:16;9.50;99.90
55213;DHT22;41083;52.932;6.674;2023-03-21T04:44:46;9.50;99.90
55213;DHT22;41083;52.932;6.674;2023-03-21T04:47:12;9.50;99.90
55213;DHT22;41083;52.932;6.674;2023-03-21T04:49:40;9.50;99.90
55213;DHT22;41083;52.932;6.674;2023-03-21T04:52:06;9.50;99.90
55213;DHT22;41083;52.932;6.674;2023-03-21T04:54:32;9.50;99.90
55213;DHT22;41083;52.932;6.674;2023-03-21T04:56:58;9.50;99.90
55213;DHT22;41083;52.932;6.674;2023-03-21T04:59:24;9.50;99.90
55213;DHT22;41083;52.932;6.674;2023-03-21T05:01:50;9.50;99.90
55213;DHT22;41083;52.932;6.674;2023-03-21T05:04:17;9.50;99.90
55213;DHT22;41083;52.932;6.674;2023-03-21T05:06:44;9.50;99.90
55213;DHT22;41083;52.932;6.674;2023-03-21T05:09:11;9.50;99.90
55213;DHT22;41083;52.932;6.674;2023-03-21T05:11:38;9.50;99.90
55213;DHT22;41083;52.932;6.674;2023-03-21T05:14:06;9.40;99.90
55213;DHT22;41083;52.932;6.674;2023-03-21T05:16:32;9.50;99.90
55213;DHT22;41083;52.932;6.674;2023-03-21T05:19:00;9.50;99.90
55213;DHT22;41083;52.932;6.674;2023-03-21T05:21:32;9.50;99.90
55213;DHT22;41083;52.932;6.674;2023-03-21T05:24:10;9.50;99.90
55213;DHT22;41083;52.932;6.674;2023-03-21T05:26:38;9.50;99.90
55213;DHT22;41083;52.932;6.674;2023-03-21T05:29:04;9.50;99.90
55213;DHT22;41083;52.932;6.674;2023-03-21T05:31:30;9.50;99.90
55213;DHT22;41083;52.932;6.674;2023-03-21T05:33:56;9.50;99.90
55213;DHT22;41083;52.932;6.674;2023-03-21T05:36:21;9.50;99.90
55213;DHT22;41083;52.932;6.674;2023-03-21T05:38:47;9.50;99.90
55213;DHT22;41083;52.932;6.674;2023-03-21T05:41:14;9.50;99.90
55213;DHT22;41083;52.932;6.674;2023-03-21T05:43:40;9.50;99.90
55213;DHT22;41083;52.932;6.674;2023-03-21T05:46:06;9.50;99.90
55213;DHT22;41083;52.932;6.674;2023-03-21T05:48:32;9.50;99.90
55213;DHT22;41083;52.932;6.674;2023-03-21T05:50:59;9.50;99.90
55213;DHT22;41083;52.932;6.674;2023-03-21T05:53:25;9.50;99.90
55213;DHT22;41083;52.932;6.674;2023-03-21T05:55:51;9.50;99.90
55213;DHT22;41083;52.932;6.674;2023-03-21T05:58:16;9.50;99.90
55213;DHT22;41083;52.932;6.674;2023-03-21T06:00:42;9.50;99.90
55213;DHT22;41083;52.932;6.674;2023-03-21T06:03:08;9.50;99.90
55213;DHT22;41083;52.932;6.674;2023-03-21T06:05:33;9.50;99.90
55213;DHT22;41083;52.932;6.674;2023-03-21T06:07:59;9.50;99.90
55213;DHT22;41083;52.932;6.674;2023-03-21T06:10:25;9.50;99.90
55213;DHT22;41083;52.932;6.674;2023-03-21T06:12:50;9.50;99.90
55213;DHT22;41083;52.932;6.674;2023-03-21T06:15:16;9.50;99.90
55213;DHT22;41083;52.932;6.674;2023-03-21T06:17:42;9.50;99.90
55213;DHT22;41083;52.932;6.674;2023-03-21T06:20:08;9.50;99.90
55213;DHT22;41083;52.932;6.674;2023-03-21T06:22:35;9.50;99.90
55213;DHT22;41083;52.932;6.674;2023-03-21T06:25:00;9.50;99.90
55213;DHT22;41083;52.932;6.674;2023-03-21T06:27:26;9.50;99.90
55213;DHT22;41083;52.932;6.674;2023-03-21T06:29:52;9.50;99.90
55213;DHT22;41083;52.932;6.674;2023-03-21T06:32:17;9.50;99.90
55213;DHT22;41083;52.932;6.674;2023-03-21T06:34:43;9.50;99.90
55213;DHT22;41083;52.932;6.674;2023-03-21T06:37:09;9.50;99.90
55213;DHT22;41083;52.932;6.674;2023-03-21T06:39:35;9.50;99.90
55213;DHT22;41083;52.932;6.674;2023-03-21T06:42:00;9.50;99.90
55213;DHT22;41083;52.932;6.674;2023-03-21T06:44:26;9.50;99.90
55213;DHT22;41083;52.932;6.674;2023-03-21T06:46:52;9.50;99.90
55213;DHT22;41083;52.932;6.674;2023-03-21T06:49:18;9.50;99.90
55213;DHT22;41083;52.932;6.674;2023-03-21T06:51:44;9.50;99.90
55213;DHT22;41083;52.932;6.674;2023-03-21T06:54:10;9.50;99.90
55213;DHT22;41083;52.932;6.674;2023-03-21T06:56:36;9.50;99.90
55213;DHT22;41083;52.932;6.674;2023-03-21T06:59:02;9.50;99.90
55213;DHT22;41083;52.932;6.674;2023-03-21T07:01:28;9.50;99.90
55213;DHT22;41083;52.932;6.674;2023-03-21T07:03:55;9.50;99.90
55213;DHT22;41083;52.932;6.674;2023-03-21T07:06:23;9.50;99.90
55213;DHT22;41083;52.932;6.674;2023-03-21T07:08:51;9.50;99.90
55213;DHT22;41083;52.932;6.674;2023-03-21T07:11:17;9.50;99.90
55213;DHT22;41083;52.932;6.674;2023-03-21T07:13:43;9.60;99.90
55213;DHT22;41083;52.932;6.674;2023-03-21T07:16:09;9.60;99.90
55213;DHT22;41083;52.932;6.674;2023-03-21T07:18:35;9.60;99.90
55213;DHT22;41083;52.932;6.674;2023-03-21T07:21:01;9.60;99.90
55213;DHT22;41083;52.932;6.674;2023-03-21T07:23:27;9.60;99.90
55213;DHT22;41083;52.932;6.674;2023-03-21T07:25:53;9.60;99.90
55213;DHT22;41083;52.932;6.674;2023-03-21T07:28:19;9.60;99.90
55213;DHT22;41083;52.932;6.674;2023-03-21T07:30:50;9.70;99.90
55213;DHT22;41083;52.932;6.674;2023-03-21T07:33:15;9.60;99.90
55213;DHT22;41083;52.932;6.674;2023-03-21T07:35:41;9.60;99.90
55213;DHT22;41083;52.932;6.674;2023-03-21T07:38:07;9.70;99.90
55213;DHT22;41083;52.932;6.674;2023-03-21T07:40:32;9.70;99.90
55213;DHT22;41083;52.932;6.674;2023-03-21T07:42:58;9.70;99.90
55213;DHT22;41083;52.932;6.674;2023-03-21T07:45:24;9.70;99.90
55213;DHT22;41083;52.932;6.674;2023-03-21T07:47:52;9.60;99.90
55213;DHT22;41083;52.932;6.674;2023-03-21T07:50:18;9.60;99.90
55213;DHT22;41083;52.932;6.674;2023-03-21T07:52:44;9.70;99.90
55213;DHT22;41083;52.932;6.674;2023-03-21T07:55:11;9.60;99.90
55213;DHT22;41083;52.932;6.674;2023-03-21T07:57:36;9.70;99.90
55213;DHT22;41083;52.932;6.674;2023-03-21T08:00:03;9.60;99.90
55213;DHT22;41083;52.932;6.674;2023-03-21T08:02:30;9.60;99.90
55213;DHT22;41083;52.932;6.674;2023-03-21T08:04:56;9.60;99.90
55213;DHT22;41083;52.932;6.674;2023-03-21T08:07:21;9.70;99.90
55213;DHT22;41083;52.932;6.674;2023-03-21T08:09:47;9.70;99.90
55213;DHT22;41083;52.932;6.674;2023-03-21T08:12:13;9.70;99.90
55213;DHT22;41083;52.932;6.674;2023-03-21T08:14:38;9.70;99.90
55213;DHT22;41083;52.932;6.674;2023-03-21T08:17:05;9.70;99.90
55213;DHT22;41083;52.932;6.674;2023-03-21T08:19:31;9.70;99.90
55213;DHT22;41083;52.932;6.674;2023-03-21T08:21:57;9.70;99.90
55213;DHT22;41083;52.932;6.674;2023-03-21T08:24:24;9.70;99.90
55213;DHT22;41083;52.932;6.674;2023-03-21T08:26:50;9.70;99.90
55213;DHT22;41083;52.932;6.674;2023-03-21T08:29:16;9.80;99.90
55213;DHT22;41083;52.932;6.674;2023-03-21T08:31:42;9.80;99.90
55213;DHT22;41083;52.932;6.674;2023-03-21T08:34:08;9.80;99.90
55213;DHT22;41083;52.932;6.674;2023-03-21T08:36:35;9.80;99.90
55213;DHT22;41083;52.932;6.674;2023-03-21T08:39:02;9.80;99.90
55213;DHT22;41083;52.932;6.674;2023-03-21T08:41:34;9.70;99.90
55213;DHT22;41083;52.932;6.674;2023-03-21T08:44:00;9.80;99.90
55213;DHT22;41083;52.932;6.674;2023-03-21T08:46:26;9.80;99.90
55213;DHT22;41083;52.932;6.674;2023-03-21T08:48:52;9.80;99.90
55213;DHT22;41083;52.932;6.674;2023-03-21T08:51:18;9.80;99.90
55213;DHT22;41083;52.932;6.674;2023-03-21T08:53:45;9.80;99.90
55213;DHT22;41083;52.932;6.674;2023-03-21T08:56:10;9.90;99.90
55213;DHT22;41083;52.932;6.674;2023-03-21T08:58:36;9.80;99.90
55213;DHT22;41083;52.932;6.674;2023-03-21T09:01:03;9.80;99.90
55213;DHT22;41083;52.932;6.674;2023-03-21T09:03:29;9.80;99.90
55213;DHT22;41083;52.932;6.674;2023-03-21T09:05:55;9.90;99.90
55213;DHT22;41083;52.932;6.674;2023-03-21T09:08:22;9.90;99.90
55213;DHT22;41083;52.932;6.674;2023-03-21T09:10:57;9.90;99.90
55213;DHT22;41083;52.932;6.674;2023-03-21T09:13:23;9.90;99.90
55213;DHT22;41083;52.932;6.674;2023-03-21T09:15:49;9.80;99.90
55213;DHT22;41083;52.932;6.674;2023-03-21T09:18:15;9.90;99.90
55213;DHT22;41083;52.932;6.674;2023-03-21T09:20:46;9.90;99.90
55213;DHT22;41083;52.932;6.674;2023-03-21T09:23:13;9.90;99.90
55213;DHT22;41083;52.932;6.674;2023-03-21T09:25:40;9.90;99.90
55213;DHT22;41083;52.932;6.674;2023-03-21T09:28:06;9.90;99.90
55213;DHT22;41083;52.932;6.674;2023-03-21T09:30:34;9.90;99.90
55213;DHT22;41083;52.932;6.674;2023-03-21T09:33:02;9.90;99.90
55213;DHT22;41083;52.932;6.674;2023-03-21T09:35:31;9.90;99.90
55213;DHT22;41083;52.932;6.674;2023-03-21T09:37:57;9.90;99.90
55213;DHT22;41083;52.932;6.674;2023-03-21T09:40:46;9.90;99.90
55213;DHT22;41083;52.932;6.674;2023-03-21T09:46:01;9.90;99.90
55213;DHT22;41083;52.932;6.674;2023-03-21T09:48:39;9.90;99.90
55213;DHT22;41083;52.932;6.674;2023-03-21T09:51:10;9.90;99.90
55213;DHT22;41083;52.932;6.674;2023-03-21T09:53:40;9.90;99.90
55213;DHT22;41083;52.932;6.674;2023-03-21T09:56:09;9.90;99.90
55213;DHT22;41083;52.932;6.674;2023-03-21T09:58:45;9.90;99.90
55213;DHT22;41083;52.932;6.674;2023-03-21T10:01:18;9.90;99.90
55213;DHT22;41083;52.932;6.674;2023-03-21T10:03:54;9.90;99.90
55213;DHT22;41083;52.932;6.674;2023-03-21T10:06:22;9.90;99.90
55213;DHT22;41083;52.932;6.674;2023-03-21T10:09:14;9.90;99.90
55213;DHT22;41083;52.932;6.674;2023-03-21T10:14:15;9.80;99.90
55213;DHT22;41083;52.932;6.674;2023-03-21T10:16:44;9.80;99.90
55213;DHT22;41083;52.932;6.674;2023-03-21T10:19:14;9.90;99.90
55213;DHT22;41083;52.932;6.674;2023-03-21T10:21:43;9.90;99.90
55213;DHT22;41083;52.932;6.674;2023-03-21T10:24:19;9.80;99.90
55213;DHT22;41083;52.932;6.674;2023-03-21T10:26:46;9.90;99.90
55213;DHT22;41083;52.932;6.674;2023-03-21T10:29:13;10.00;99.90
55213;DHT22;41083;52.932;6.674;2023-03-21T10:31:41;9.90;99.90
55213;DHT22;41083;52.932;6.674;2023-03-21T10:34:30;9.90;99.90
55213;DHT22;41083;52.932;6.674;2023-03-21T10:36:56;9.90;99.90
55213;DHT22;41083;52.932;6.674;2023-03-21T10:39:33;10.00;99.90
55213;DHT22;41083;52.932;6.674;2023-03-21T10:42:00;10.00;99.90
55213;DHT22;41083;52.932;6.674;2023-03-21T10:44:31;10.00;99.90
55213;DHT22;41083;52.932;6.674;2023-03-21T10:47:03;10.00;99.90
55213;DHT22;41083;52.932;6.674;2023-03-21T10:49:30;10.00;99.90
55213;DHT22;41083;52.932;6.674;2023-03-21T10:51:58;10.00;99.90
55213;DHT22;41083;52.932;6.674;2023-03-21T10:54:28;10.10;99.90
55213;DHT22;41083;52.932;6.674;2023-03-21T10:57:10;10.10;99.90
55213;DHT22;41083;52.932;6.674;2023-03-21T10:59:40;10.20;99.90
55213;DHT22;41083;52.932;6.674;2023-03-21T11:02:33;10.20;99.90
55213;DHT22;41083;52.932;6.674;2023-03-21T11:05:32;10.20;99.90
55213;DHT22;41083;52.932;6.674;2023-03-21T11:08:03;10.30;99.90
55213;DHT22;41083;52.932;6.674;2023-03-21T11:10:54;10.30;99.90
55213;DHT22;41083;52.932;6.674;2023-03-21T11:13:35;10.40;99.90
55213;DHT22;41083;52.932;6.674;2023-03-21T11:16:41;10.40;99.90
55213;DHT22;41083;52.932;6.674;2023-03-21T11:19:02;10.50;99.90
55213;DHT22;41083;52.932;6.674;2023-03-21T11:21:35;10.50;99.90
55213;DHT22;41083;52.932;6.674;2023-03-21T11:24:02;10.60;99.90
55213;DHT22;41083;52.932;6.674;2023-03-21T11:26:35;10.60;99.90
55213;DHT22;41083;52.932;6.674;2023-03-21T11:29:33;10.60;99.90
55213;DHT22;41083;52.932;6.674;2023-03-21T11:32:09;10.70;99.90
55213;DHT22;41083;52.932;6.674;2023-03-21T11:34:52;10.80;99.90
55213;DHT22;41083;52.932;6.674;2023-03-21T11:37:20;10.80;99.90
55213;DHT22;41083;52.932;6.674;2023-03-21T11:39:54;10.90;99.90
55213;DHT22;41083;52.932;6.674;2023-03-21T11:42:30;10.90;99.90
55213;DHT22;41083;52.932;6.674;2023-03-21T11:45:09;10.90;99.90
55213;DHT22;41083;52.932;6.674;2023-03-21T11:47:35;11.00;99.90
55213;DHT22;41083;52.932;6.674;2023-03-21T11:50:01;11.00;99.90
55213;DHT22;41083;52.932;6.674;2023-03-21T11:52:45;10.90;99.90
55213;DHT22;41083;52.932;6.674;2023-03-21T11:55:23;11.00;99.90
55213;DHT22;41083;52.932;6.674;2023-03-21T12:01:03;11.00;99.90
55213;DHT22;41083;52.932;6.674;2023-03-21T12:06:24;11.00;99.90
55213;DHT22;41083;52.932;6.674;2023-03-21T12:11:40;11.00;99.90
55213;DHT22;41083;52.932;6.674;2023-03-21T12:31:22;11.20;99.90
55213;DHT22;41083;52.932;6.674;2023-03-21T12:37:11;11.30;99.90
55213;DHT22;41083;52.932;6.674;2023-03-21T12:39:43;11.20;99.90
55213;DHT22;41083;52.932;6.674;2023-03-21T12:45:30;11.10;99.90
55213;DHT22;41083;52.932;6.674;2023-03-21T12:50:44;11.10;99.90
55213;DHT22;41083;52.932;6.674;2023-03-21T12:53:35;11.10;99.90
55213;DHT22;41083;52.932;6.674;2023-03-21T12:56:10;11.00;99.90
55213;DHT22;41083;52.932;6.674;2023-03-21T12:58:45;11.00;99.90
55213;DHT22;41083;52.932;6.674;2023-03-21T13:01:12;11.10;99.90
55213;DHT22;41083;52.932;6.674;2023-03-21T13:03:50;11.10;99.90
55213;DHT22;41083;52.932;6.674;2023-03-21T13:06:21;11.00;99.90
55213;DHT22;41083;52.932;6.674;2023-03-21T13:08:55;11.10;99.90
55213;DHT22;41083;52.932;6.674;2023-03-21T13:11:24;11.00;99.90
55213;DHT22;41083;52.932;6.674;2023-03-21T13:14:19;11.10;99.90
55213;DHT22;41083;52.932;6.674;2023-03-21T13:17:05;11.10;99.90
55213;DHT22;41083;52.932;6.674;2023-03-21T13:19:46;11.20;99.90
55213;DHT22;41083;52.932;6.674;2023-03-21T13:25:03;11.30;99.90
55213;DHT22;41083;52.932;6.674;2023-03-21T13:27:32;11.40;99.90
55213;DHT22;41083;52.932;6.674;2023-03-21T13:30:00;11.50;99.90
55213;DHT22;41083;52.932;6.674;2023-03-21T13:32:39;11.50;99.90
55213;DHT22;41083;52.932;6.674;2023-03-21T13:37:39;11.50;99.90
55213;DHT22;41083;52.932;6.674;2023-03-21T13:40:23;11.50;99.90
55213;DHT22;41083;52.932;6.674;2023-03-21T13:42:54;11.60;99.90
55213;DHT22;41083;52.932;6.674;2023-03-21T13:47:56;11.70;99.90
55213;DHT22;41083;52.932;6.674;2023-03-21T13:50:24;11.70;99.90
55213;DHT22;41083;52.932;6.674;2023-03-21T13:55:40;11.60;99.90
55213;DHT22;41083;52.932;6.674;2023-03-21T14:01:34;11.60;99.90
55213;DHT22;41083;52.932;6.674;2023-03-21T14:06:34;11.50;99.90
55213;DHT22;41083;52.932;6.674;2023-03-21T14:09:01;11.50;99.90
55213;DHT22;41083;52.932;6.674;2023-03-21T14:11:28;11.50;99.90
55213;DHT22;41083;52.932;6.674;2023-03-21T14:13:55;11.50;99.90
55213;DHT22;41083;52.932;6.674;2023-03-21T14:16:25;11.60;99.90
55213;DHT22;41083;52.932;6.674;2023-03-21T14:19:04;11.50;99.90
55213;DHT22;41083;52.932;6.674;2023-03-21T14:21:32;11.60;99.90
55213;DHT22;41083;52.932;6.674;2023-03-21T14:24:10;11.70;99.90
55213;DHT22;41083;52.932;6.674;2023-03-21T14:26:40;11.70;99.90
55213;DHT22;41083;52.932;6.674;2023-03-21T14:29:16;11.80;99.90
55213;DHT22;41083;52.932;6.674;2023-03-21T14:31:45;11.80;99.90
55213;DHT22;41083;52.932;6.674;2023-03-21T14:34:12;12.00;99.90
55213;DHT22;41083;52.932;6.674;2023-03-21T14:36:40;12.00;99.90
55213;DHT22;41083;52.932;6.674;2023-03-21T14:39:22;12.10;99.90
55213;DHT22;41083;52.932;6.674;2023-03-21T14:41:55;12.10;99.90
55213;DHT22;41083;52.932;6.674;2023-03-21T14:44:26;12.20;99.90
55213;DHT22;41083;52.932;6.674;2023-03-21T14:47:02;12.20;99.90
55213;DHT22;41083;52.932;6.674;2023-03-21T14:49:31;12.20;99.90
55213;DHT22;41083;52.932;6.674;2023-03-21T14:52:21;12.20;99.90
55213;DHT22;41083;52.932;6.674;2023-03-21T14:54:48;12.10;99.90
55213;DHT22;41083;52.932;6.674;2023-03-21T14:57:19;12.00;99.90
55213;DHT22;41083;52.932;6.674;2023-03-21T14:59:49;12.00;99.90
55213;DHT22;41083;52.932;6.674;2023-03-21T15:04:56;12.10;99.90
55213;DHT22;41083;52.932;6.674;2023-03-21T15:07:25;12.10;99.90
55213;DHT22;41083;52.932;6.674;2023-03-21T15:09:57;12.20;99.90
55213;DHT22;41083;52.932;6.674;2023-03-21T15:12:22;12.20;99.90
55213;DHT22;41083;52.932;6.674;2023-03-21T15:14:48;12.30;99.90
55213;DHT22;41083;52.932;6.674;2023-03-21T15:17:14;12.30;99.90
55213;DHT22;41083;52.932;6.674;2023-03-21T15:19:41;12.20;99.90
55213;DHT22;41083;52.932;6.674;2023-03-21T15:24:49;12.10;99.90
55213;DHT22;41083;52.932;6.674;2023-03-21T15:27:18;12.10;99.90
55213;DHT22;41083;52.932;6.674;2023-03-21T15:29:50;12.00;99.90
55213;DHT22;41083;52.932;6.674;2023-03-21T15:32:21;11.90;99.90
55213;DHT22;41083;52.932;6.674;2023-03-21T15:34:48;11.90;99.90
55213;DHT22;41083;52.932;6.674;2023-03-21T15:37:25;11.90;99.90
55213;DHT22;41083;52.932;6.674;2023-03-21T15:39:52;11.80;99.90
55213;DHT22;41083;52.932;6.674;2023-03-21T15:44:48;11.80;99.90
55213;DHT22;41083;52.932;6.674;2023-03-21T15:47:38;11.80;99.90
55213;DHT22;41083;52.932;6.674;2023-03-21T15:52:48;11.80;99.90
55213;DHT22;41083;52.932;6.674;2023-03-21T15:55:23;11.80;99.90
55213;DHT22;41083;52.932;6.674;2023-03-21T15:57:59;11.80;99.90
55213;DHT22;41083;52.932;6.674;2023-03-21T16:03:06;11.80;99.90
55213;DHT22;41083;52.932;6.674;2023-03-21T16:05:33;11.80;99.90
55213;DHT22;41083;52.932;6.674;2023-03-21T16:08:20;11.80;99.90
55213;DHT22;41083;52.932;6.674;2023-03-21T16:10:46;11.70;99.90
55213;DHT22;41083;52.932;6.674;2023-03-21T16:13:13;11.80;99.90
55213;DHT22;41083;52.932;6.674;2023-03-21T16:15:39;11.80;99.90
55213;DHT22;41083;52.932;6.674;2023-03-21T16:18:05;11.80;99.90
55213;DHT22;41083;52.932;6.674;2023-03-21T16:20:34;11.70;99.90
55213;DHT22;41083;52.932;6.674;2023-03-21T16:23:01;11.70;99.90
55213;DHT22;41083;52.932;6.674;2023-03-21T16:25:31;11.70;99.90
55213;DHT22;41083;52.932;6.674;2023-03-21T16:27:57;11.70;99.90
55213;DHT22;41083;52.932;6.674;2023-03-21T16:30:23;11.70;99.90
55213;DHT22;41083;52.932;6.674;2023-03-21T16:32:50;11.70;99.90
55213;DHT22;41083;52.932;6.674;2023-03-21T16:35:16;11.70;99.90
55213;DHT22;41083;52.932;6.674;2023-03-21T16:37:42;11.70;99.90
55213;DHT22;41083;52.932;6.674;2023-03-21T16:40:29;11.70;99.90
55213;DHT22;41083;52.932;6.674;2023-03-21T16:42:55;11.70;99.90
55213;DHT22;41083;52.932;6.674;2023-03-21T16:45:21;11.70;99.90
55213;DHT22;41083;52.932;6.674;2023-03-21T16:47:47;11.70;99.90
55213;DHT22;41083;52.932;6.674;2023-03-21T16:50:29;11.60;99.90
55213;DHT22;41083;52.932;6.674;2023-03-21T16:52:56;11.60;99.90
55213;DHT22;41083;52.932;6.674;2023-03-21T16:55:23;11.60;99.90
55213;DHT22;41083;52.932;6.674;2023-03-21T16:57:50;11.50;99.90
55213;DHT22;41083;52.932;6.674;2023-03-21T17:00:23;11.50;99.90
55213;DHT22;41083;52.932;6.674;2023-03-21T17:02:50;11.40;99.90
55213;DHT22;41083;52.932;6.674;2023-03-21T17:05:16;11.30;99.90
55213;DHT22;41083;52.932;6.674;2023-03-21T17:07:42;11.20;99.90
55213;DHT22;41083;52.932;6.674;2023-03-21T17:10:21;11.20;99.90
55213;DHT22;41083;52.932;6.674;2023-03-21T17:12:47;11.10;99.90
55213;DHT22;41083;52.932;6.674;2023-03-21T17:15:14;11.00;99.90
55213;DHT22;41083;52.932;6.674;2023-03-21T17:17:40;10.90;99.90
55213;DHT22;41083;52.932;6.674;2023-03-21T17:22:43;10.90;99.90
55213;DHT22;41083;52.932;6.674;2023-03-21T17:25:09;10.80;99.90
55213;DHT22;41083;52.932;6.674;2023-03-21T17:27:34;10.80;99.90
55213;DHT22;41083;52.932;6.674;2023-03-21T17:30:00;10.80;99.90
55213;DHT22;41083;52.932;6.674;2023-03-21T17:32:26;10.80;99.90
55213;DHT22;41083;52.932;6.674;2023-03-21T17:34:51;10.80;99.90
55213;DHT22;41083;52.932;6.674;2023-03-21T17:37:18;10.80;99.90
55213;DHT22;41083;52.932;6.674;2023-03-21T17:39:44;10.80;99.90